createdAt,value
2019-06-15T00:02:55.679Z,95.20
2019-06-15T00:06:59.929Z,95.20
2019-06-15T00:11:04.166Z,95.20
2019-06-15T00:15:09.285Z,95.40
2019-06-15T00:19:13.609Z,95.30
2019-06-15T00:23:17.851Z,95.20
2019-06-15T00:27:28.422Z,95.40
2019-06-15T00:31:32.651Z,95.40
2019-06-15T00:35:36.875Z,95.20
2019-06-15T00:39:41.079Z,95.40
2019-06-15T00:43:45.332Z,95.80
2019-06-15T00:47:49.556Z,95.50
2019-06-15T00:51:53.786Z,95.40
2019-06-15T00:55:58.038Z,95.40
2019-06-15T01:00:02.269Z,95.50
2019-06-15T01:04:06.479Z,95.50
2019-06-15T01:08:10.710Z,95.60
2019-06-15T01:12:14.933Z,95.60
2019-06-15T01:16:19.155Z,95.70
2019-06-15T01:20:23.372Z,95.70
2019-06-15T01:24:27.587Z,95.80
2019-06-15T01:28:31.824Z,96.10
2019-06-15T01:32:36.048Z,96.20
2019-06-15T01:36:40.288Z,96.40
2019-06-15T01:40:44.500Z,96.30
2019-06-15T01:44:48.747Z,96.30
2019-06-15T01:48:52.973Z,96.80
2019-06-15T01:52:57.195Z,96.60
2019-06-15T01:57:01.436Z,97.30
2019-06-15T02:01:06.188Z,96.90
2019-06-15T02:05:10.619Z,96.80
2019-06-15T02:09:14.858Z,96.80
2019-06-15T02:13:19.083Z,96.70
2019-06-15T02:17:23.321Z,96.70
2019-06-15T02:21:27.560Z,96.80
2019-06-15T02:25:36.264Z,96.90
2019-06-15T02:29:38.036Z,96.80
2019-06-15T02:33:42.265Z,97.00
2019-06-15T02:37:46.501Z,97.10
2019-06-15T02:41:51.309Z,97.30
2019-06-15T02:45:55.941Z,97.00
2019-06-15T02:50:00.172Z,97.00
2019-06-15T02:54:04.408Z,96.90
2019-06-15T02:58:08.640Z,97.10
2019-06-15T03:02:12.895Z,96.90
2019-06-15T03:06:17.102Z,97.00
2019-06-15T03:10:21.376Z,96.90
2019-06-15T03:14:25.600Z,97.00
2019-06-15T03:18:29.863Z,97.20
2019-06-15T03:22:34.095Z,96.90
2019-06-15T03:26:38.299Z,96.90
2019-06-15T03:30:43.069Z,96.80
2019-06-15T03:34:47.299Z,96.90
2019-06-15T03:38:51.546Z,97.10
2019-06-15T03:42:55.775Z,97.30
2019-06-15T03:46:59.987Z,97.00
2019-06-15T03:51:04.331Z,97.10
2019-06-15T03:55:09.080Z,97.00
2019-06-15T03:59:13.429Z,97.00
2019-06-15T04:03:17.796Z,97.10
2019-06-15T04:07:22.015Z,97.10
2019-06-15T04:11:26.240Z,97.20
2019-06-15T04:15:30.652Z,97.20
2019-06-15T04:19:34.924Z,97.10
2019-06-15T04:23:39.160Z,97.20
2019-06-15T04:27:43.392Z,97.20
2019-06-15T04:31:47.607Z,97.30
2019-06-15T04:35:51.857Z,97.20
2019-06-15T04:39:56.100Z,97.30
2019-06-15T04:44:00.344Z,97.30
2019-06-15T04:48:04.595Z,97.20
2019-06-15T04:52:08.816Z,97.40
2019-06-15T04:56:13.060Z,97.30
2019-06-15T05:00:17.333Z,97.30
2019-06-15T05:04:21.559Z,97.40
2019-06-15T05:08:25.867Z,97.40
2019-06-15T05:12:30.086Z,97.60
2019-06-15T05:16:34.319Z,97.50
2019-06-15T05:20:38.553Z,97.50
2019-06-15T05:24:42.784Z,97.60
2019-06-15T05:28:47.104Z,97.60
2019-06-15T05:32:51.311Z,97.60
2019-06-15T05:36:55.579Z,97.70
2019-06-15T05:40:59.816Z,97.90
2019-06-15T05:45:04.958Z,97.90
2019-06-15T05:49:09.163Z,98.00
2019-06-15T05:53:13.362Z,97.90
2019-06-15T05:57:21.631Z,98.10
2019-06-15T06:01:23.567Z,98.10
2019-06-15T06:05:27.811Z,98.10
2019-06-15T06:09:32.235Z,98.40
2019-06-15T06:13:36.480Z,98.40
2019-06-15T06:17:42.367Z,98.40
2019-06-15T06:21:46.717Z,98.50
2019-06-15T06:25:50.944Z,98.50
2019-06-15T06:29:55.187Z,98.50
2019-06-15T06:33:59.423Z,98.60
2019-06-15T06:38:03.868Z,98.60
2019-06-15T06:42:08.073Z,98.60
2019-06-15T06:46:12.391Z,98.60
2019-06-15T06:50:17.143Z,98.60
2019-06-15T06:54:21.917Z,98.60
2019-06-15T06:58:26.128Z,98.50
2019-06-15T07:02:30.376Z,98.80
2019-06-15T07:06:34.600Z,98.80
2019-06-15T07:10:38.831Z,98.80
2019-06-15T07:14:43.066Z,98.90
2019-06-15T07:18:47.286Z,98.90
2019-06-15T07:22:51.508Z,98.90
2019-06-15T07:26:55.763Z,99.00
2019-06-15T07:30:59.997Z,99.20
2019-06-15T07:35:04.548Z,99.10
2019-06-15T07:39:08.765Z,99.00
2019-06-15T07:43:13.023Z,98.90
2019-06-15T07:47:17.249Z,99.10
2019-06-15T07:51:21.493Z,99.20
2019-06-15T07:55:25.730Z,99.20
2019-06-15T07:59:29.947Z,99.20
2019-06-15T08:03:34.211Z,99.20
2019-06-15T08:07:38.451Z,99.60
2019-06-15T08:11:45.754Z,99.50
2019-06-15T08:15:48.588Z,99.70
2019-06-15T08:19:52.797Z,99.50
2019-06-15T08:23:57.040Z,99.60
2019-06-15T08:28:01.387Z,99.50
2019-06-15T08:32:05.632Z,99.70
2019-06-15T08:36:09.861Z,99.60
2019-06-15T08:40:14.124Z,99.60
2019-06-15T08:44:18.381Z,99.90
2019-06-15T08:48:22.670Z,99.90
2019-06-15T08:52:26.903Z,99.90
2019-06-15T08:56:31.132Z,99.80
2019-06-15T09:00:35.389Z,99.90
2019-06-15T09:04:39.652Z,99.80
2019-06-15T09:08:58.524Z,99.90
2019-06-15T09:13:02.740Z,99.90
2019-06-15T09:17:06.974Z,99.90
2019-06-15T09:21:11.206Z,99.90
2019-06-15T09:25:15.466Z,99.90
2019-06-15T09:29:19.698Z,99.90
2019-06-15T09:33:23.939Z,99.90
2019-06-15T09:37:28.187Z,99.90
2019-06-15T09:41:32.444Z,99.90
2019-06-15T09:45:36.686Z,99.90
2019-06-15T09:49:40.902Z,99.90
2019-06-15T09:53:45.136Z,99.90
2019-06-15T09:57:49.369Z,99.90
2019-06-15T10:01:53.624Z,99.90
2019-06-15T10:05:57.851Z,99.90
2019-06-15T10:10:02.148Z,99.90
2019-06-15T10:14:06.396Z,99.90
2019-06-15T10:18:10.633Z,99.90
2019-06-15T10:22:14.916Z,99.90
2019-06-15T10:26:19.147Z,99.90
2019-06-15T10:30:23.372Z,99.90
2019-06-15T10:34:27.636Z,99.90
2019-06-15T10:38:32.017Z,99.90
2019-06-15T10:42:36.257Z,99.90
2019-06-15T10:46:40.504Z,99.90
2019-06-15T10:50:45.001Z,99.90
2019-06-15T10:54:49.231Z,99.90
2019-06-15T10:58:53.547Z,99.90
2019-06-15T11:02:57.799Z,99.90
2019-06-15T11:07:02.077Z,99.90
2019-06-15T11:11:22.605Z,99.90
2019-06-15T11:15:26.831Z,99.90
2019-06-15T11:19:31.060Z,99.90
2019-06-15T11:23:35.275Z,99.90
2019-06-15T11:27:39.523Z,99.90
2019-06-15T11:31:44.008Z,99.90
2019-06-15T11:35:48.336Z,99.90
2019-06-15T11:39:52.555Z,99.90
2019-06-15T11:43:56.784Z,99.90
2019-06-15T11:48:01.008Z,99.90
2019-06-15T11:52:05.314Z,99.90
2019-06-15T11:56:09.556Z,99.90
2019-06-15T12:00:30.360Z,99.90
2019-06-15T12:04:20.057Z,99.90
2019-06-15T12:08:24.272Z,99.90
2019-06-15T12:12:28.476Z,99.90
2019-06-15T12:16:32.708Z,99.90
2019-06-15T12:20:38.972Z,99.90
2019-06-15T12:24:42.872Z,99.90
2019-06-15T12:28:47.106Z,99.90
2019-06-15T12:32:51.348Z,99.90
2019-06-15T12:36:55.584Z,99.90
2019-06-15T12:40:59.812Z,99.90
2019-06-15T12:45:04.137Z,99.90
2019-06-15T12:49:08.363Z,99.90
2019-06-15T12:53:12.614Z,99.90
2019-06-15T12:57:16.795Z,99.90
2019-06-15T13:01:21.066Z,99.90
2019-06-15T13:05:25.268Z,99.90
2019-06-15T13:09:29.500Z,99.90
2019-06-15T13:13:33.714Z,99.90
2019-06-15T13:17:37.929Z,99.90
2019-06-15T13:21:42.160Z,99.80
2019-06-15T13:25:46.377Z,99.70
2019-06-15T13:29:50.591Z,99.30
2019-06-15T13:33:54.827Z,99.60
2019-06-15T13:37:59.031Z,99.30
2019-06-15T13:42:03.270Z,99.50
2019-06-15T13:46:07.593Z,99.80
2019-06-15T13:50:12.023Z,99.80
2019-06-15T13:54:16.267Z,99.80
2019-06-15T13:58:20.483Z,99.90
2019-06-15T14:02:24.743Z,99.90
2019-06-15T14:06:28.980Z,99.90
2019-06-15T14:10:33.919Z,99.90
2019-06-15T14:14:38.151Z,99.90
2019-06-15T14:18:42.355Z,99.90
2019-06-15T14:22:46.577Z,99.90
2019-06-15T14:26:50.817Z,99.90
2019-06-15T14:30:55.026Z,99.90
2019-06-15T14:34:59.260Z,99.90
2019-06-15T14:39:04.692Z,99.90
2019-06-15T14:43:08.924Z,99.90
2019-06-15T14:47:13.149Z,99.80
2019-06-15T14:51:17.392Z,99.20
2019-06-15T14:55:21.826Z,99.10
2019-06-15T14:59:26.862Z,99.50
2019-06-15T15:03:31.163Z,99.40
2019-06-15T15:07:36.764Z,98.60
2019-06-15T15:11:41.190Z,98.30
2019-06-15T15:15:46.786Z,98.20
2019-06-15T15:19:51.156Z,98.30
2019-06-15T15:23:57.099Z,98.40
2019-06-15T15:28:01.252Z,98.20
2019-06-15T15:32:09.172Z,97.40
2019-06-15T15:36:11.389Z,97.80
2019-06-15T15:40:16.658Z,97.60
2019-06-15T15:44:20.932Z,98.20
2019-06-15T15:48:25.950Z,98.30
2019-06-15T15:52:30.291Z,98.10
2019-06-15T15:56:36.078Z,98.80
2019-06-15T16:04:44.019Z,99.90
2019-06-15T16:08:48.428Z,99.40
2019-06-15T16:12:52.656Z,99.20
2019-06-15T16:16:56.880Z,99.30
2019-06-15T16:21:01.292Z,99.50
2019-06-15T16:25:06.828Z,99.20
2019-06-15T16:29:11.204Z,98.60
2019-06-15T16:33:16.191Z,98.60
2019-06-15T16:37:31.849Z,98.00
2019-06-15T16:41:36.560Z,97.30
2019-06-15T16:45:40.901Z,96.40
2019-06-15T16:49:46.511Z,96.30
2019-06-15T16:53:50.815Z,95.20
2019-06-15T16:57:56.634Z,95.60
2019-06-15T17:02:01.124Z,93.80
2019-06-15T17:06:07.074Z,93.70
2019-06-15T17:10:11.460Z,94.50
2019-06-15T17:14:17.169Z,94.60
2019-06-15T17:18:21.878Z,94.90
2019-06-15T17:22:26.096Z,94.80
2019-06-15T17:26:30.547Z,94.80
2019-06-15T17:30:36.846Z,94.80
2019-06-15T17:34:40.677Z,94.80
2019-06-15T17:38:46.368Z,94.90
2019-06-15T17:42:50.749Z,94.90
2019-06-15T17:46:56.564Z,95.40
2019-06-15T17:51:01.012Z,95.20
2019-06-15T17:55:07.099Z,95.30
2019-06-15T17:59:11.733Z,95.30
2019-06-15T18:03:16.944Z,95.20
2019-06-15T18:07:21.434Z,95.30
2019-06-15T18:11:26.261Z,95.30
2019-06-15T18:15:30.621Z,95.40
2019-06-15T18:19:36.933Z,95.10
2019-06-15T18:23:42.828Z,95.30
2019-06-15T18:27:47.076Z,95.40
2019-06-15T18:31:51.363Z,95.40
2019-06-15T18:35:55.629Z,95.40
2019-06-15T18:40:00.065Z,95.40
2019-06-15T18:44:06.380Z,95.40
2019-06-15T18:48:10.388Z,95.50
2019-06-15T18:52:17.148Z,95.60
2019-06-15T18:56:21.527Z,95.60
2019-06-15T19:04:31.222Z,95.40
2019-06-15T19:08:35.518Z,95.60
2019-06-15T19:12:39.849Z,95.70
2019-06-15T19:16:44.124Z,95.70
2019-06-15T19:20:48.960Z,95.70
2019-06-15T19:24:53.265Z,95.70
2019-06-15T19:28:57.610Z,95.70
2019-06-15T19:33:01.887Z,95.70
2019-06-15T19:37:06.803Z,95.70
2019-06-15T19:41:11.227Z,95.70
2019-06-15T19:45:16.928Z,95.80
2019-06-15T19:49:21.363Z,95.70
2019-06-15T19:53:27.296Z,95.80
2019-06-15T19:57:31.500Z,95.70
2019-06-15T20:01:36.217Z,95.70
2019-06-15T20:05:40.803Z,95.80
2019-06-15T20:09:46.299Z,95.80
2019-06-15T20:13:50.714Z,95.80
2019-06-15T20:17:56.958Z,95.70
2019-06-15T20:22:00.961Z,95.70
2019-06-15T20:26:06.624Z,95.80
2019-06-15T20:30:12.624Z,95.80
2019-06-15T20:34:16.870Z,95.80
2019-06-15T20:38:21.130Z,95.80
2019-06-15T20:42:27.018Z,95.80
2019-06-15T20:46:31.423Z,95.80
2019-06-15T20:50:36.395Z,95.90
2019-06-15T20:54:40.882Z,95.90
2019-06-15T20:58:45.968Z,95.90
2019-06-15T21:02:50.522Z,95.90
2019-06-15T21:06:54.982Z,95.90
2019-06-15T21:10:59.247Z,95.80
2019-06-15T21:15:03.682Z,95.80
2019-06-15T21:19:08.004Z,95.90
2019-06-15T21:23:12.230Z,95.80
2019-06-15T21:27:16.840Z,95.80
2019-06-15T21:31:21.194Z,95.80
2019-06-15T21:35:26.720Z,95.90
2019-06-15T21:39:31.441Z,96.00
2019-06-15T21:43:36.354Z,95.90
2019-06-15T21:47:40.889Z,95.90
2019-06-15T21:51:47.395Z,96.00
2019-06-15T21:55:51.205Z,96.00
2019-06-15T21:59:56.478Z,96.00
2019-06-15T22:04:00.965Z,96.00
2019-06-15T22:08:06.391Z,96.00
2019-06-15T22:12:10.958Z,96.00
2019-06-15T22:16:16.863Z,96.10
2019-06-15T22:20:21.440Z,96.10
2019-06-15T22:24:26.768Z,96.10
2019-06-15T22:28:31.202Z,96.10
2019-06-15T22:32:35.471Z,96.10
2019-06-15T22:36:52.173Z,96.10
2019-06-15T22:40:56.566Z,96.10
2019-06-15T22:45:00.813Z,96.20
2019-06-15T22:49:07.276Z,96.20
2019-06-15T22:53:11.629Z,96.30
2019-06-15T22:57:16.734Z,96.30
2019-06-15T23:01:21.296Z,95.90
2019-06-15T23:05:26.288Z,96.20
2019-06-15T23:09:30.742Z,96.10
2019-06-15T23:13:36.874Z,96.20
2019-06-15T23:17:41.074Z,96.10
2019-06-15T23:21:46.346Z,96.10
2019-06-15T23:25:50.711Z,96.40
2019-06-15T23:29:56.999Z,96.70
2019-06-15T23:34:00.951Z,96.60
2019-06-15T23:38:06.526Z,96.40
2019-06-15T23:42:10.965Z,96.50
2019-06-15T23:46:16.029Z,96.50
2019-06-15T23:50:21.290Z,96.70
2019-06-15T23:54:27.895Z,96.50
2019-06-15T23:58:40.678Z,96.50
